Time;durP1;ratioP1;P1;durP2;ratioP2;P2;SDS_P1;SDS_P2;PMS_P1;PMS_P2;Temp;Humidity;BMP_temperature;BMP_pressure;BME280_temperature;BME280_humidity;BME280_pressure;Samples;Min_cycle;Max_cycle;Signal;HPM_P1;HPM_P2
2022/11/26 00:00:56;;;;;;;30.83;11.40;;;5.80;99.90;;;;;;5030153;28;20123;-58
2022/11/26 00:03:22;;;;;;;32.83;12.30;;;5.80;99.90;;;;;;5030349;28;20026;-57
2022/11/26 00:05:51;;;;;;;26.37;10.87;;;5.80;99.90;;;;;;5032607;28;20083;-58
2022/11/26 00:08:34;;;;;;;33.63;11.55;;;5.90;99.90;;;;;;5034385;28;20029;-58
2022/11/26 00:11:00;;;;;;;30.33;10.87;;;5.80;99.90;;;;;;5034247;28;20037;-58
2022/11/26 00:13:29;;;;;;;22.97;10.23;;;5.80;99.90;;;;;;5034334;28;20034;-58
2022/11/26 00:15:55;;;;;;;30.27;10.63;;;5.70;99.90;;;;;;5033916;28;20502;-56
2022/11/26 00:18:27;;;;;;;23.67;10.20;;;5.60;99.90;;;;;;5034121;28;20083;-57
2022/11/26 00:20:58;;;;;;;34.70;11.40;;;5.60;99.90;;;;;;5033963;28;20029;-58
2022/11/26 00:23:26;;;;;;;27.47;11.30;;;5.60;99.90;;;;;;5034162;28;20044;-58
2022/11/26 00:25:58;;;;;;;25.07;11.00;;;5.60;99.90;;;;;;5033879;28;20030;-58
2022/11/26 00:28:26;;;;;;;41.07;12.57;;;5.60;99.90;;;;;;5033978;28;20044;-57
2022/11/26 00:30:55;;;;;;;34.63;11.97;;;5.60;99.90;;;;;;5032548;28;20025;-57
2022/11/26 00:33:21;;;;;;;36.00;11.73;;;5.50;99.90;;;;;;5034023;28;20033;-57
2022/11/26 00:36:08;;;;;;;38.83;12.10;;;5.40;99.90;;;;;;5033661;28;20402;-56
2022/11/26 00:38:34;;;;;;;32.53;11.63;;;5.40;99.90;;;;;;5033028;28;20091;-57
2022/11/26 00:41:00;;;;;;;31.00;11.30;;;5.30;99.90;;;;;;5033619;28;20456;-57
2022/11/26 00:43:25;;;;;;;33.60;12.33;;;5.30;99.90;;;;;;5033789;28;20059;-58
2022/11/26 00:45:51;;;;;;;32.27;11.40;;;5.30;99.90;;;;;;5033507;28;20097;-58
2022/11/26 00:48:18;;;;;;;32.80;11.70;;;5.30;99.90;;;;;;5033385;28;20025;-57
2022/11/26 00:50:49;;;;;;;26.50;11.27;;;5.30;99.90;;;;;;5033542;28;20037;-57
2022/11/26 00:53:19;;;;;;;28.50;10.97;;;5.30;99.90;;;;;;5033740;28;20072;-59
2022/11/26 00:55:47;;;;;;;35.57;11.53;;;5.20;99.90;;;;;;5033169;28;20076;-56
2022/11/26 00:58:27;;;;;;;31.67;11.43;;;5.20;99.90;;;;;;5033196;28;20033;-57
2022/11/26 01:00:55;;;;;;;28.10;11.10;;;5.30;99.90;;;;;;5033579;28;20041;-58
2022/11/26 01:03:21;;;;;;;26.00;10.77;;;5.30;99.90;;;;;;5033523;28;20410;-56
2022/11/26 01:05:56;;;;;;;33.17;12.20;;;5.30;99.90;;;;;;5033506;28;20071;-57
2022/11/26 01:08:33;;;;;;;34.53;12.50;;;5.30;99.90;;;;;;5033103;28;20036;-57
2022/11/26 01:11:02;;;;;;;33.33;10.93;;;5.30;99.90;;;;;;5033136;28;20621;-57
2022/11/26 01:13:28;;;;;;;29.70;11.05;;;5.40;99.90;;;;;;5033072;28;20452;-57
2022/11/26 01:15:56;;;;;;;28.43;10.40;;;5.50;99.90;;;;;;5033094;28;20030;-57
2022/11/26 01:18:23;;;;;;;32.90;10.73;;;5.60;99.90;;;;;;5032797;28;20025;-57
2022/11/26 01:20:49;;;;;;;31.17;10.30;;;5.60;99.90;;;;;;5032778;28;20486;-57
2022/11/26 01:23:17;;;;;;;35.80;10.40;;;5.60;99.90;;;;;;5032923;28;20025;-57
2022/11/26 01:25:44;;;;;;;30.48;10.35;;;5.60;99.90;;;;;;5032891;28;20064;-57
2022/11/26 01:28:13;;;;;;;28.47;10.23;;;5.70;99.90;;;;;;5032647;28;20025;-57
2022/11/26 01:30:40;;;;;;;32.58;10.55;;;5.70;99.90;;;;;;5031787;28;20083;-57
2022/11/26 01:33:06;;;;;;;26.87;9.93;;;5.90;99.90;;;;;;5032765;28;20025;-57
2022/11/26 01:35:32;;;;;;;33.20;10.90;;;5.90;99.90;;;;;;5032918;28;20103;-57
2022/11/26 01:37:58;;;;;;;30.00;9.70;;;5.90;99.90;;;;;;5032680;28;20517;-57
2022/11/26 01:40:23;;;;;;;33.63;10.30;;;5.90;99.90;;;;;;5032167;28;20072;-57
2022/11/26 01:43:10;;;;;;;30.30;10.43;;;5.90;99.90;;;;;;5032865;28;20104;-57
2022/11/26 01:45:35;;;;;;;30.67;10.70;;;6.00;99.90;;;;;;5032532;28;20029;-57
2022/11/26 01:48:09;;;;;;;31.30;10.20;;;6.00;99.90;;;;;;5032350;28;20398;-57
2022/11/26 01:50:47;;;;;;;25.30;8.77;;;6.00;99.90;;;;;;5032157;28;20065;-57
2022/11/26 01:53:26;;;;;;;37.77;10.80;;;6.00;99.90;;;;;;5032568;28;20033;-57
2022/11/26 01:56:00;;;;;;;;;;;6.00;99.90;;;;;;5032928;28;20125;-57
2022/11/26 01:58:32;;;;;;;25.03;9.87;;;6.00;99.90;;;;;;5032140;28;19909;-57
2022/11/26 02:00:59;;;;;;;36.03;10.63;;;5.90;99.90;;;;;;5032103;28;20509;-57
2022/11/26 02:03:28;;;;;;;27.37;9.63;;;5.90;99.90;;;;;;5032298;28;20033;-57
2022/11/26 02:05:59;;;;;;;29.07;9.40;;;5.90;99.90;;;;;;5032100;28;20032;-57
2022/11/26 02:08:29;;;;;;;27.57;9.67;;;5.90;99.90;;;;;;5032101;28;20032;-57
2022/11/26 02:10:54;;;;;;;31.07;9.80;;;5.90;99.90;;;;;;5030721;28;20109;-57
2022/11/26 02:13:21;;;;;;;28.30;9.93;;;5.90;99.90;;;;;;5030499;28;20116;-57
2022/11/26 02:16:04;;;;;;;25.47;9.53;;;5.90;99.90;;;;;;5030409;28;20038;-57
2022/11/26 02:18:36;;;;;;;33.17;10.27;;;5.90;99.90;;;;;;5031635;28;20029;-57
2022/11/26 02:21:12;;;;;;;30.73;10.17;;;5.90;99.90;;;;;;5031724;28;20478;-57
2022/11/26 02:24:18;;;;;;;34.07;10.93;;;5.90;99.90;;;;;;5031968;28;20033;-57
2022/11/26 02:26:59;;;;;;;26.90;9.70;;;5.80;99.90;;;;;;5031659;28;20125;-57
2022/11/26 02:29:54;;;;;;;27.03;10.40;;;5.70;99.90;;;;;;5031262;28;20034;-57
2022/11/26 02:32:26;;;;;;;29.67;10.37;;;5.70;99.90;;;;;;5031603;28;20512;-57
2022/11/26 02:35:00;;;;;;;33.90;10.17;;;5.60;99.90;;;;;;5031693;28;20030;-57
2022/11/26 02:37:36;;;;;;;31.00;10.33;;;5.70;99.90;;;;;;5031594;28;20152;-57
2022/11/26 02:40:01;;;;;;;36.40;10.10;;;5.60;99.90;;;;;;5029945;28;20033;-57
2022/11/26 02:42:30;;;;;;;31.97;10.10;;;5.60;99.90;;;;;;5031485;28;20029;-57
2022/11/26 02:45:01;;;;;;;30.77;10.52;;;5.60;99.90;;;;;;5031290;28;20033;-57
2022/11/26 02:47:28;;;;;;;27.83;10.63;;;5.60;99.90;;;;;;5031136;28;20487;-57
2022/11/26 02:49:58;;;;;;;35.97;10.63;;;5.50;99.90;;;;;;5031260;28;20040;-57
2022/11/26 02:52:25;;;;;;;32.60;11.27;;;5.50;99.90;;;;;;5031426;28;20506;-57
2022/11/26 02:54:53;;;;;;;36.87;11.20;;;5.50;99.90;;;;;;5031201;28;20029;-57
2022/11/26 02:57:21;;;;;;;25.03;10.10;;;5.50;99.90;;;;;;5029641;28;20445;-57
2022/11/26 02:59:47;;;;;;;34.78;11.27;;;5.50;99.90;;;;;;5031067;28;20382;-57
2022/11/26 03:02:26;;;;;;;29.93;10.30;;;5.50;99.90;;;;;;5031267;28;20040;-57
2022/11/26 03:04:56;;;;;;;34.38;11.13;;;5.60;99.90;;;;;;5031227;28;20041;-57
2022/11/26 03:07:23;;;;;;;34.47;12.07;;;5.50;99.90;;;;;;5030925;28;20034;-57
2022/11/26 03:09:58;;;;;;;36.13;11.50;;;5.50;99.90;;;;;;5030794;28;20040;-57
2022/11/26 03:12:25;;;;;;;32.37;10.27;;;5.50;99.90;;;;;;5031059;28;20034;-57
2022/11/26 03:14:51;;;;;;;33.53;11.30;;;5.50;99.90;;;;;;5030885;28;20493;-57
2022/11/26 03:17:17;;;;;;;29.73;11.07;;;5.40;99.90;;;;;;5029436;28;20099;-57
2022/11/26 03:19:43;;;;;;;30.00;10.93;;;5.40;99.90;;;;;;5030613;28;20036;-57
2022/11/26 03:22:09;;;;;;;31.50;11.03;;;5.50;99.90;;;;;;5030809;28;20049;-57
2022/11/26 03:24:35;;;;;;;30.07;11.77;;;5.40;99.90;;;;;;5030792;28;20449;-57
2022/11/26 03:27:01;;;;;;;45.63;13.07;;;5.40;99.90;;;;;;5030626;28;20640;-57
2022/11/26 03:29:27;;;;;;;39.17;11.63;;;5.40;99.90;;;;;;5030594;28;20029;-57
2022/11/26 03:31:53;;;;;;;33.60;11.83;;;5.40;99.90;;;;;;5030785;28;20033;-57
2022/11/26 03:34:18;;;;;;;38.13;11.83;;;5.30;99.90;;;;;;5030703;28;20035;-57
2022/11/26 03:36:44;;;;;;;34.43;12.40;;;5.30;99.90;;;;;;5030493;28;20547;-57
2022/11/26 03:39:10;;;;;;;35.77;11.80;;;5.40;99.90;;;;;;5029758;28;20446;-57
2022/11/26 03:41:36;;;;;;;31.40;11.90;;;5.30;99.90;;;;;;5030510;28;20037;-57
2022/11/26 03:44:02;;;;;;;36.23;12.97;;;5.30;99.90;;;;;;5030788;28;20107;-57
2022/11/26 03:46:28;;;;;;;39.33;12.67;;;5.30;99.90;;;;;;5029191;28;20160;-57
2022/11/26 03:48:53;;;;;;;38.27;11.83;;;5.30;99.90;;;;;;5030410;28;20037;-57
2022/11/26 03:51:19;;;;;;;37.80;11.93;;;5.30;99.90;;;;;;5029238;28;20104;-57
2022/11/26 03:53:45;;;;;;;38.27;12.93;;;5.30;99.90;;;;;;5030495;28;20029;-57
2022/11/26 03:56:12;;;;;;;38.27;12.63;;;5.40;99.90;;;;;;5030319;28;20490;-57
2022/11/26 03:58:37;;;;;;;42.83;11.80;;;5.40;99.90;;;;;;5029999;28;20120;-57
2022/11/26 04:01:08;;;;;;;35.23;11.73;;;5.40;99.90;;;;;;5030511;28;20167;-57
2022/11/26 04:03:34;;;;;;;36.87;12.73;;;5.50;99.90;;;;;;5030449;28;20032;-57
2022/11/26 04:05:59;;;;;;;40.23;11.83;;;5.60;99.90;;;;;;5030257;28;20022;-57
2022/11/26 04:08:25;;;;;;;33.00;10.63;;;5.50;99.90;;;;;;5030432;28;20103;-57
2022/11/26 04:10:51;;;;;;;30.87;11.33;;;5.60;99.90;;;;;;5030196;28;20387;-57
2022/11/26 04:13:16;;;;;;;37.87;11.10;;;5.70;99.90;;;;;;5030261;28;20075;-57
2022/11/26 04:15:42;;;;;;;35.20;11.67;;;5.70;99.90;;;;;;5030439;28;20037;-56
2022/11/26 04:18:08;;;;;;;35.07;10.53;;;5.70;99.90;;;;;;5030095;28;20553;-57
2022/11/26 04:20:34;;;;;;;33.13;11.03;;;5.70;99.90;;;;;;5029904;28;20033;-56
2022/11/26 04:22:59;;;;;;;35.43;11.43;;;5.80;99.90;;;;;;5030233;28;20049;-57
2022/11/26 04:25:25;;;;;;;41.87;11.53;;;5.80;99.90;;;;;;5030053;28;20497;-57
2022/11/26 04:27:51;;;;;;;30.53;10.97;;;5.80;99.90;;;;;;5030125;28;20044;-57
2022/11/26 04:30:17;;;;;;;29.57;10.87;;;5.80;99.90;;;;;;5029893;28;20034;-57
2022/11/26 04:32:42;;;;;;;29.90;9.87;;;5.90;99.90;;;;;;5030168;28;20109;-57
2022/11/26 04:35:08;;;;;;;34.73;11.20;;;6.00;99.90;;;;;;5030010;28;20522;-57
2022/11/26 04:37:34;;;;;;;32.63;10.47;;;6.00;99.90;;;;;;5029876;28;20151;-57
2022/11/26 04:40:00;;;;;;;29.30;10.93;;;6.00;99.90;;;;;;5029686;28;20037;-57
2022/11/26 04:42:26;;;;;;;34.47;9.87;;;6.00;99.90;;;;;;5030171;28;20053;-57
2022/11/26 04:44:52;;;;;;;30.00;9.43;;;6.00;99.90;;;;;;5029985;28;20486;-57
2022/11/26 04:47:17;;;;;;;26.60;9.67;;;6.00;99.90;;;;;;5029762;28;20122;-61
2022/11/26 04:49:43;;;;;;;25.67;8.90;;;6.00;99.90;;;;;;5029769;28;20072;-57
2022/11/26 04:52:09;;;;;;;35.13;10.57;;;6.00;99.90;;;;;;5032494;28;20255;-57
2022/11/26 04:54:35;;;;;;;39.10;10.50;;;5.90;99.90;;;;;;5033660;28;20087;-57
2022/11/26 04:57:01;;;;;;;29.90;10.50;;;5.80;99.90;;;;;;5033145;28;20167;-57
2022/11/26 04:59:26;;;;;;;28.93;10.00;;;5.80;99.90;;;;;;5033289;28;20029;-57
2022/11/26 05:01:52;;;;;;;35.13;10.97;;;5.80;99.90;;;;;;5033431;28;20363;-57
2022/11/26 05:04:19;;;;;;;30.70;9.37;;;5.90;99.90;;;;;;5033407;28;20108;-57
2022/11/26 05:06:45;;;;;;;32.47;9.67;;;5.80;99.90;;;;;;5033076;28;20033;-57
2022/11/26 05:09:11;;;;;;;29.63;10.43;;;5.80;99.90;;;;;;5033171;28;20522;-57
2022/11/26 05:11:36;;;;;;;28.63;9.90;;;5.80;99.90;;;;;;5033383;28;20142;-57
2022/11/26 05:14:02;;;;;;;32.30;10.67;;;5.80;99.90;;;;;;5033302;28;20689;-57
2022/11/26 05:16:28;;;;;;;45.20;9.97;;;5.80;99.90;;;;;;5031697;28;20119;-57
2022/11/26 05:18:54;;;;;;;30.93;9.73;;;5.80;99.90;;;;;;5032783;28;20470;-57
2022/11/26 05:21:19;;;;;;;29.93;9.67;;;5.80;99.90;;;;;;5033130;28;20481;-57
2022/11/26 05:23:45;;;;;;;27.40;9.87;;;5.80;99.90;;;;;;5033024;28;20083;-57
2022/11/26 05:26:11;;;;;;;26.60;8.93;;;5.90;99.90;;;;;;5032897;28;20079;-57
2022/11/26 05:28:37;;;;;;;29.07;8.73;;;5.90;99.90;;;;;;5032675;28;20447;-57
2022/11/26 05:31:03;;;;;;;37.07;11.67;;;5.90;99.90;;;;;;5032940;28;20113;-57
2022/11/26 05:33:29;;;;;;;26.33;9.03;;;5.90;99.90;;;;;;5032696;28;20052;-57
2022/11/26 05:35:54;;;;;;;25.77;9.20;;;5.90;99.90;;;;;;5032779;28;20112;-57
2022/11/26 05:38:21;;;;;;;31.57;9.50;;;5.90;99.90;;;;;;5032557;28;20037;-57
2022/11/26 05:40:46;;;;;;;28.43;9.07;;;6.00;99.90;;;;;;5032468;28;20095;-57
2022/11/26 05:43:12;;;;;;;32.50;9.47;;;6.00;99.90;;;;;;5032869;28;20037;-58
2022/11/26 05:45:38;;;;;;;28.97;8.40;;;6.00;99.90;;;;;;5032593;28;20030;-58
2022/11/26 05:48:04;;;;;;;30.37;9.30;;;6.00;99.90;;;;;;5032418;28;20030;-57
2022/11/26 05:50:31;;;;;;;33.30;9.03;;;6.00;99.90;;;;;;5032228;28;20037;-57
2022/11/26 05:52:57;;;;;;;31.70;9.67;;;6.00;99.90;;;;;;5032596;28;20033;-57
2022/11/26 05:55:23;;;;;;;27.63;9.27;;;6.00;99.90;;;;;;5046638;22;20017;-54
2022/11/26 05:57:49;;;;;;;27.57;8.77;;;6.00;99.90;;;;;;5030750;28;20041;-54
2022/11/26 06:00:15;;;;;;;29.43;9.30;;;6.10;99.90;;;;;;5030834;28;20033;-51
2022/11/26 06:02:41;;;;;;;32.93;9.17;;;6.00;99.90;;;;;;5030602;28;20383;-54
2022/11/26 06:05:07;;;;;;;32.07;8.70;;;6.10;99.90;;;;;;5031304;28;20051;-53
2022/11/26 06:07:33;;;;;;;28.27;9.33;;;6.10;99.90;;;;;;5031015;28;20037;-52
2022/11/26 06:09:59;;;;;;;27.97;9.37;;;6.10;99.90;;;;;;5031120;28;20037;-54
2022/11/26 06:12:25;;;;;;;29.40;9.70;;;6.00;99.90;;;;;;5031178;28;20444;-53
2022/11/26 06:14:50;;;;;;;27.63;9.33;;;6.10;99.90;;;;;;5031436;28;20047;-53
2022/11/26 06:17:16;;;;;;;29.17;9.27;;;6.10;99.90;;;;;;5029845;28;20125;-53
2022/11/26 06:19:42;;;;;;;29.00;9.30;;;6.10;99.90;;;;;;5030896;28;20128;-54
2022/11/26 06:22:08;;;;;;;29.57;9.60;;;6.00;99.90;;;;;;5031136;28;20029;-53
2022/11/26 06:24:34;;;;;;;29.43;9.63;;;6.10;99.90;;;;;;5031109;28;20039;-53
2022/11/26 06:26:59;;;;;;;27.23;9.87;;;6.00;99.90;;;;;;5030772;28;20109;-54
2022/11/26 06:29:25;;;;;;;25.23;9.60;;;5.90;99.90;;;;;;5030834;28;20394;-51
2022/11/26 06:31:51;;;;;;;37.80;10.10;;;5.90;99.90;;;;;;5031146;28;20033;-55
2022/11/26 06:34:16;;;;;;;28.77;9.80;;;5.90;99.90;;;;;;5031127;28;20037;-51
2022/11/26 06:36:42;;;;;;;32.33;9.57;;;5.90;99.90;;;;;;5030718;28;20037;-54
2022/11/26 06:39:09;;;;;;;37.73;10.20;;;5.90;99.90;;;;;;5030660;28;20072;-50
2022/11/26 06:41:35;;;;;;;29.90;9.87;;;5.80;99.90;;;;;;5031047;28;20124;-48
2022/11/26 06:44:01;;;;;;;44.97;18.40;;;5.80;99.90;;;;;;5030924;28;20422;-53
2022/11/26 06:46:27;;;;;;;36.37;12.20;;;5.90;99.90;;;;;;5030551;28;20032;-46
2022/11/26 06:48:53;;;;;;;29.47;9.27;;;5.90;99.90;;;;;;5030649;28;20026;-49
2022/11/26 06:51:26;;;;;;;31.00;9.43;;;5.90;99.90;;;;;;5030709;28;20108;-48
2022/11/26 06:53:53;;;;;;;28.10;10.10;;;5.90;99.90;;;;;;5029400;28;20033;-49
2022/11/26 06:56:18;;;;;;;25.90;9.97;;;5.90;99.90;;;;;;4992375;28;1105624;-51
2022/11/26 06:58:45;;;;;;;35.50;9.83;;;5.90;99.90;;;;;;5025444;28;20032;-50
2022/11/26 07:01:17;;;;;;;23.70;9.67;;;5.90;99.90;;;;;;5021640;28;20032;-52
2022/11/26 07:03:43;;;;;;;36.27;11.43;;;5.80;99.90;;;;;;5028839;28;20029;-52
2022/11/26 07:06:26;;;;;;;27.60;10.50;;;5.80;99.90;;;;;;5029909;28;20420;-50
2022/11/26 07:08:54;;;;;;;31.53;10.93;;;5.70;99.90;;;;;;5029340;28;20239;-52
2022/11/26 07:11:20;;;;;;;33.10;11.07;;;5.70;99.90;;;;;;5030042;28;20469;-49
2022/11/26 07:13:46;;;;;;;33.00;11.27;;;5.70;99.90;;;;;;5028167;28;20057;-54
2022/11/26 07:16:12;;;;;;;36.90;11.93;;;5.70;99.90;;;;;;5028347;28;20063;-50
2022/11/26 07:18:39;;;;;;;43.97;13.93;;;5.60;99.90;;;;;;5029288;28;20543;-51
2022/11/26 07:21:07;;;;;;;32.73;12.90;;;5.60;99.90;;;;;;5027992;28;20410;-53
2022/11/26 07:23:33;;;;;;;32.40;12.47;;;5.60;99.90;;;;;;5029832;28;20037;-50
2022/11/26 07:25:59;;;;;;;34.10;12.80;;;5.70;99.90;;;;;;5029536;28;20037;-52
2022/11/26 07:28:25;;;;;;;31.60;11.20;;;5.60;99.90;;;;;;5029060;28;20074;-53
2022/11/26 07:30:51;;;;;;;40.23;12.10;;;5.70;99.90;;;;;;5028621;28;20124;-52
2022/11/26 07:33:17;;;;;;;27.70;12.73;;;5.70;99.90;;;;;;5029692;28;20029;-50
2022/11/26 07:35:42;;;;;;;32.70;11.80;;;5.70;99.90;;;;;;5028874;28;20041;-54
2022/11/26 07:38:08;;;;;;;32.37;12.03;;;5.70;99.90;;;;;;5029018;28;20057;-54
2022/11/26 07:40:34;;;;;;;32.70;12.00;;;5.70;99.90;;;;;;5028810;28;20492;-50
2022/11/26 07:42:59;;;;;;;33.83;11.40;;;5.80;99.90;;;;;;5028966;28;20111;-52
2022/11/26 07:45:25;;;;;;;37.23;11.80;;;5.80;99.90;;;;;;5028617;28;20049;-52
2022/11/26 07:47:51;;;;;;;30.37;11.60;;;5.80;99.90;;;;;;5029101;28;20042;-54
2022/11/26 07:50:17;;;;;;;30.27;10.70;;;5.80;99.90;;;;;;5028766;28;20402;-54
2022/11/26 07:52:43;;;;;;;25.17;10.70;;;5.80;99.90;;;;;;5029369;28;20033;-52
2022/11/26 07:55:09;;;;;;;29.30;11.07;;;5.80;99.90;;;;;;5028904;28;20037;-51
2022/11/26 07:57:34;;;;;;;30.27;10.93;;;5.70;99.90;;;;;;5027837;28;20057;-52
2022/11/26 08:00:00;;;;;;;24.10;9.67;;;5.80;99.90;;;;;;5028851;28;20387;-51
2022/11/26 08:02:26;;;;;;;33.13;11.33;;;5.70;99.90;;;;;;5028253;28;20026;-50
2022/11/26 08:04:51;;;;;;;33.03;11.60;;;5.70;99.90;;;;;;5028957;28;20175;-54
2022/11/26 08:07:17;;;;;;;32.33;11.47;;;5.80;99.90;;;;;;5028776;28;20100;-51
2022/11/26 08:09:43;;;;;;;32.67;11.27;;;5.70;99.90;;;;;;5027660;28;20391;-54
2022/11/26 08:12:08;;;;;;;23.47;10.30;;;5.80;99.90;;;;;;5028651;28;20025;-53
2022/11/26 08:14:34;;;;;;;23.10;9.93;;;5.80;99.90;;;;;;5028993;28;20454;-54
2022/11/26 08:17:00;;;;;;;27.03;9.73;;;5.80;99.90;;;;;;5028105;28;20037;-54
2022/11/26 08:19:26;;;;;;;27.47;11.23;;;5.80;99.90;;;;;;5028740;28;20037;-52
2022/11/26 08:21:51;;;;;;;27.27;11.27;;;5.80;99.90;;;;;;5028817;28;20029;-52
2022/11/26 08:24:18;;;;;;;24.30;10.07;;;5.80;99.90;;;;;;5029212;28;20136;-53
2022/11/26 08:26:45;;;;;;;25.67;9.60;;;5.90;99.90;;;;;;5030573;28;20025;-55
2022/11/26 08:29:12;;;;;;;22.03;9.83;;;6.00;99.90;;;;;;5032311;28;20029;-53
2022/11/26 08:31:39;;;;;;;29.73;10.17;;;6.00;99.90;;;;;;5031922;28;20465;-54
2022/11/26 08:34:05;;;;;;;27.67;10.17;;;6.10;99.90;;;;;;5032481;28;20037;-51
2022/11/26 08:36:31;;;;;;;25.70;10.33;;;6.10;99.90;;;;;;5032450;28;20040;-54
2022/11/26 08:38:58;;;;;;;23.60;9.47;;;6.20;99.90;;;;;;5032346;28;20022;-53
2022/11/26 08:41:25;;;;;;;26.40;10.13;;;6.20;99.90;;;;;;5032295;28;20419;-52
2022/11/26 08:43:51;;;;;;;22.10;8.93;;;6.20;99.90;;;;;;5032162;28;20438;-56
2022/11/26 08:46:16;;;;;;;22.30;8.00;;;6.30;99.90;;;;;;5031503;28;20034;-54
2022/11/26 08:48:44;;;;;;;29.20;9.33;;;6.40;99.90;;;;;;5032081;28;20064;-52
2022/11/26 08:51:11;;;;;;;22.63;8.57;;;6.50;99.90;;;;;;5032210;28;20482;-55
2022/11/26 08:53:37;;;;;;;20.60;8.40;;;6.50;99.90;;;;;;5032413;28;20401;-54
2022/11/26 08:56:09;;;;;;;20.53;8.37;;;6.60;99.90;;;;;;5032312;28;20393;-54
2022/11/26 08:58:37;;;;;;;23.93;8.90;;;6.70;99.90;;;;;;5031685;28;20120;-51
2022/11/26 09:01:09;;;;;;;19.40;7.57;;;6.80;99.90;;;;;;5031347;28;20030;-54
2022/11/26 09:03:36;;;;;;;22.10;7.27;;;6.90;99.90;;;;;;5032148;28;20445;-53
2022/11/26 09:06:03;;;;;;;24.77;8.47;;;6.90;99.90;;;;;;5032261;28;20277;-51
2022/11/26 09:08:30;;;;;;;22.80;7.27;;;7.10;99.90;;;;;;5031891;28;20497;-52
2022/11/26 09:10:56;;;;;;;18.30;7.20;;;7.10;99.90;;;;;;5032070;28;20117;-52
2022/11/26 09:13:22;;;;;;;20.07;7.27;;;7.20;99.90;;;;;;5031804;28;20653;-53
2022/11/26 09:15:49;;;;;;;16.13;6.67;;;7.20;99.90;;;;;;5031453;28;20025;-51
2022/11/26 09:18:15;;;;;;;16.53;7.20;;;7.30;99.90;;;;;;5031999;28;20045;-52
2022/11/26 09:20:41;;;;;;;16.37;6.97;;;7.40;99.90;;;;;;5031513;28;20053;-52
2022/11/26 09:23:06;;;;;;;19.97;7.63;;;7.50;99.90;;;;;;5031854;28;20067;-50
2022/11/26 09:25:32;;;;;;;23.03;7.10;;;7.50;99.90;;;;;;5031573;28;20041;-53
2022/11/26 09:27:58;;;;;;;21.40;6.93;;;7.60;99.90;;;;;;5030907;28;20029;-52
2022/11/26 09:30:23;;;;;;;20.20;6.53;;;7.70;99.90;;;;;;5030369;28;20037;-53
2022/11/26 09:32:49;;;;;;;18.93;6.60;;;7.80;99.90;;;;;;5031487;28;20112;-51
2022/11/26 09:35:15;;;;;;;19.27;5.97;;;8.40;99.90;;;;;;5031380;28;20048;-53
2022/11/26 09:37:41;;;;;;;15.67;5.67;;;8.90;99.90;;;;;;5028651;28;20033;-54
2022/11/26 09:40:10;;;;;;;12.77;5.80;;;9.70;99.90;;;;;;5031045;28;20059;-51
2022/11/26 09:42:51;;;;;;;57.42;29.73;;;10.10;99.90;;;;;;5030494;28;20041;-53
2022/11/26 09:45:27;;;;;;;17.90;9.20;;;10.30;99.90;;;;;;5030824;28;20375;-53
2022/11/26 09:47:53;;;;;;;13.07;5.00;;;10.20;99.90;;;;;;5030878;28;20040;-53
2022/11/26 09:50:30;;;;;;;12.00;5.47;;;10.10;99.90;;;;;;5030964;28;20071;-47
2022/11/26 09:53:01;;;;;;;17.63;5.23;;;10.00;99.90;;;;;;5029276;28;20080;-52
2022/11/26 09:55:34;;;;;;;19.77;5.40;;;10.10;99.90;;;;;;5031094;28;20124;-53
2022/11/26 09:58:11;;;;;;;16.07;5.93;;;9.80;99.90;;;;;;5030781;28;20108;-53
2022/11/26 10:00:43;;;;;;;19.87;6.20;;;9.60;99.90;;;;;;5028236;28;20209;-49
2022/11/26 10:03:18;;;;;;;16.30;5.33;;;9.80;99.90;;;;;;5029158;28;20030;-50
2022/11/26 10:06:06;;;;;;;14.53;5.03;;;10.40;99.90;;;;;;5028908;28;20041;-50
2022/11/26 10:09:15;;;;;;;17.43;5.30;;;10.60;99.90;;;;;;5028931;28;20040;-54
2022/11/26 10:11:48;;;;;;;13.48;4.40;;;11.00;99.90;;;;;;5028898;28;20135;-55
2022/11/26 10:14:35;;;;;;;11.23;4.47;;;11.30;99.90;;;;;;5029404;28;20022;-52
2022/11/26 10:17:20;;;;;;;14.77;5.00;;;11.10;99.90;;;;;;5029513;28;20124;-51
2022/11/26 10:20:07;;;;;;;15.07;5.00;;;10.80;99.90;;;;;;5030449;28;20520;-50
2022/11/26 10:22:55;;;;;;;15.27;4.93;;;10.70;99.90;;;;;;5030313;28;20083;-52
2022/11/26 10:25:25;;;;;;;13.00;4.53;;;10.90;99.90;;;;;;5030316;28;20152;-52
2022/11/26 10:27:54;;;;;;;16.57;5.20;;;10.90;99.90;;;;;;5028607;28;20497;-52
2022/11/26 10:30:24;;;;;;;15.38;4.72;;;10.90;99.90;;;;;;5029479;28;20040;-53
2022/11/26 10:32:50;;;;;;;;;;;10.90;99.90;;;;;;5030884;28;20112;-54
2022/11/26 10:35:26;;;;;;;10.87;4.80;;;10.70;99.90;;;;;;5030497;28;19965;-53
2022/11/26 10:37:57;;;;;;;18.57;5.30;;;10.80;99.90;;;;;;5030103;28;20057;-51
2022/11/26 10:40:24;;;;;;;16.10;5.40;;;10.80;99.90;;;;;;5030316;28;20033;-50
2022/11/26 10:43:07;;;;;;;15.30;5.30;;;10.70;99.90;;;;;;5029927;28;20175;-51
2022/11/26 10:45:58;;;;;;;25.83;10.37;;;10.40;99.90;;;;;;5029265;28;20065;-51
2022/11/26 10:48:30;;;;;;;14.83;5.07;;;10.30;99.90;;;;;;5026656;28;20424;-54
2022/11/26 10:51:05;;;;;;;15.00;5.37;;;10.10;99.90;;;;;;5029977;28;20033;-50
2022/11/26 10:53:53;;;;;;;19.07;5.20;;;10.10;99.90;;;;;;5030309;28;20258;-52
2022/11/26 10:56:23;;;;;;;14.50;4.80;;;10.00;99.90;;;;;;5028516;28;20500;-54
2022/11/26 10:58:51;;;;;;;16.85;4.97;;;9.90;99.90;;;;;;5029500;28;20056;-50
2022/11/26 11:01:18;;;;;;;14.82;4.95;;;9.90;99.90;;;;;;5029540;28;20467;-51
2022/11/26 11:03:56;;;;;;;20.67;5.30;;;9.80;99.90;;;;;;5030303;28;20037;-49
2022/11/26 11:06:40;;;;;;;20.23;5.30;;;9.70;99.90;;;;;;5029718;28;20037;-53
2022/11/26 11:09:44;;;;;;;21.13;5.07;;;9.60;99.90;;;;;;5030024;28;20052;-50
2022/11/26 11:12:09;;;;;;;15.77;4.17;;;9.60;99.90;;;;;;4948350;29;20082;-54
2022/11/26 11:14:36;;;;;;;14.77;5.20;;;9.70;99.90;;;;;;4949199;29;20023;-54
2022/11/26 11:17:02;;;;;;;15.93;4.60;;;9.60;99.90;;;;;;4985186;28;20046;-54
2022/11/26 11:19:29;;;;;;;16.07;4.50;;;9.70;99.90;;;;;;5030003;28;20374;-51
2022/11/26 11:21:55;;;;;;;20.10;4.70;;;9.70;99.90;;;;;;5029363;28;20037;-51
2022/11/26 11:24:27;;;;;;;16.87;4.43;;;9.80;99.90;;;;;;5029739;28;20029;-54
2022/11/26 11:26:56;;;;;;;17.30;5.90;;;9.80;99.90;;;;;;5028703;28;20029;-54
2022/11/26 11:29:27;;;;;;;21.00;5.55;;;9.80;99.90;;;;;;5029457;28;20179;-54
2022/11/26 11:31:54;;;;;;;16.87;4.33;;;9.80;99.90;;;;;;5028429;28;20140;-53
2022/11/26 11:34:41;;;;;;;17.87;5.47;;;9.90;99.90;;;;;;5029448;28;20047;-51
2022/11/26 11:37:16;;;;;;;16.77;5.27;;;10.00;99.90;;;;;;5028912;28;20104;-53
2022/11/26 11:39:43;;;;;;;16.83;5.00;;;10.10;99.90;;;;;;5029269;28;20036;-52
2022/11/26 11:42:28;;;;;;;17.73;5.10;;;10.10;99.90;;;;;;5028679;28;20030;-53
2022/11/26 11:44:55;;;;;;;16.67;5.10;;;10.10;99.90;;;;;;5029350;28;20084;-48
2022/11/26 11:47:42;;;;;;;18.30;5.47;;;10.20;99.90;;;;;;5028265;28;20391;-52
2022/11/26 11:50:37;;;;;;;19.80;6.17;;;10.20;99.90;;;;;;5028950;28;20033;-50
2022/11/26 11:53:36;;;;;;;18.53;4.77;;;10.20;99.90;;;;;;5029671;28;20041;-54
2022/11/26 11:56:23;;;;;;;23.27;5.75;;;10.20;99.90;;;;;;5043127;22;20041;-50
2022/11/26 11:59:22;;;;;;;19.17;5.50;;;10.10;99.90;;;;;;5028119;28;20028;-56
2022/11/26 12:02:19;;;;;;;22.37;4.87;;;10.10;99.90;;;;;;5030091;28;20063;-54
2022/11/26 12:04:52;;;;;;;17.80;4.57;;;10.10;99.90;;;;;;5033429;28;20545;-55
2022/11/26 12:07:46;;;;;;;16.50;4.70;;;10.00;99.90;;;;;;5032578;28;20041;-55
2022/11/26 12:10:24;;;;;;;18.83;5.37;;;10.00;99.90;;;;;;5032411;28;20462;-53
2022/11/26 12:12:59;;;;;;;16.13;5.57;;;9.90;99.90;;;;;;5032633;28;20056;-53
2022/11/26 12:15:27;;;;;;;15.57;4.70;;;9.90;99.90;;;;;;5032179;28;20493;-57
2022/11/26 12:18:19;;;;;;;16.50;5.50;;;9.80;99.90;;;;;;5032739;28;20021;-52
2022/11/26 12:20:53;;;;;;;14.33;4.90;;;9.90;99.90;;;;;;5031928;28;20448;-52
2022/11/26 12:23:32;;;;;;;15.53;4.63;;;10.00;99.90;;;;;;5032896;28;20116;-54
2022/11/26 12:26:10;;;;;;;16.37;4.40;;;10.00;99.90;;;;;;5031225;28;20033;-55
2022/11/26 12:29:02;;;;;;;15.43;5.03;;;10.10;99.90;;;;;;5031665;28;20032;-54
2022/11/26 12:31:44;;;;;;;14.13;5.03;;;10.20;99.90;;;;;;5031556;28;20490;-53
2022/11/26 12:34:23;;;;;;;18.87;5.43;;;10.10;99.90;;;;;;5032726;28;20041;-56
2022/11/26 12:37:02;;;;;;;20.60;7.97;;;10.10;99.90;;;;;;5032253;28;20433;-53
2022/11/26 12:40:02;;;;;;;19.07;5.10;;;10.10;99.90;;;;;;5032382;28;20520;-50
2022/11/26 12:42:51;;;;;;;14.60;4.93;;;10.10;99.90;;;;;;5031967;28;20033;-53
2022/11/26 12:45:39;;;;;;;18.42;5.57;;;10.10;99.90;;;;;;5032269;28;20445;-53
2022/11/26 12:48:32;;;;;;;15.33;4.50;;;10.10;99.90;;;;;;5032060;28;20024;-54
2022/11/26 12:51:23;;;;;;;18.27;4.93;;;10.10;99.90;;;;;;5032027;28;20129;-53
2022/11/26 12:54:03;;;;;;;15.43;4.53;;;10.20;99.90;;;;;;5032233;28;20548;-49
2022/11/26 12:56:47;;;;;;;;;;;10.30;99.90;;;;;;5032375;28;20276;-53